Point Hope, AK

12:21 AM AKST on February 24, 2017 (GMT -0900)
Point Hope

Weather History for PAPO - October, 2012

Change the Weather History Date:

Tuesday, October 30, 2012

  Actual Average Record
Temperature  
Mean Temperature 25 °F -  
Max Temperature 26 °F 23 °F 37 °F (2002)
Min Temperature 24 °F 15 °F 1 °F (2001)
Degree Days  
Heating Degree Days 40    
Moisture  
Dew Point 18 °F    
Average Humidity 71    
Maximum Humidity 86    
Minimum Humidity 59    
Precipitation  
Precipitation 0.00 in - - ()
Sea Level Pressure  
Sea Level Pressure 30.62 in    
Wind  
Wind Speed 30 mph (North)    
Max Wind Speed 36 mph    
Max Gust Speed 41 mph    
Visibility 5 miles    
Events      
Averages and records for this station are not official NWS values.
T = Trace of Precipitation, MM = Missing Value Source: NWS Daily Summary

Daily Weather History Graph

Daily Weather History Graph

Search for Another Location

Airport or City:

Trip Planner

Search our weather history database for the weather conditions in past years. The results will help you decide how hot, cold, wet, or windy it might be!

Date:

Astronomy

Oct. 30, 2012 Rise Set
Actual Time 11:16 AM AKDT 6:24 PM AKDT
Civil Twilight 10:10 AM AKDT 7:29 PM AKDT
Nautical Twilight 9:02 AM AKDT 8:37 PM AKDT
Astronomical Twilight 7:56 AM AKDT 9:42 PM AKDT
Moon 5:56 PM AKDT (10/30) 1:16 PM AKDT (10/30)
Length of Visible Light 9h 19m
Length of Day
7h 08m
Full, 99% of the Moon is Illuminated
Oct 30
Full
Nov 6
Last Quarter
Nov 13
New
Nov 20
First Quarter
Nov 28
Full

Hourly Weather History & Observations

Time (AKDT) Temp. Windchill Dew Point Humidity Pressure Visibility Wind Dir Wind Speed Gust Speed Precip Events Conditions
12:16 AM 26.6 °F 9.6 °F 21.2 °F 80% 30.46 in 2.5 mi NNW 33.4 mph 38.0 mph N/A   Overcast
12:56 AM 26.6 °F 9.8 °F 21.2 °F 80% 30.47 in 2.5 mi North 32.2 mph 36.8 mph N/A   Overcast
1:16 AM 26.6 °F 9.8 °F 21.2 °F 80% 30.47 in 1.2 mi NNW 32.2 mph 39.1 mph N/A   Overcast
1:56 AM 26.6 °F 9.1 °F 21.2 °F 80% 30.49 in 1.5 mi North 35.7 mph 40.3 mph N/A   Overcast
2:36 AM 26.6 °F 9.1 °F 21.2 °F 80% 30.49 in 2.0 mi North 35.7 mph 40.3 mph N/A   Overcast
2:56 AM 26.6 °F 10.8 °F 19.4 °F 74% 30.51 in 8.0 mi NNW 27.6 mph 35.7 mph N/A   Overcast
3:16 AM 26.6 °F 10.3 °F 19.4 °F 74% 30.52 in 5.0 mi NNW 29.9 mph 41.4 mph N/A   Overcast
3:36 AM 26.6 °F 10.0 °F 19.4 °F 74% 30.52 in 3.0 mi NNW 31.1 mph 39.1 mph N/A   Overcast
3:56 AM 26.6 °F 10.8 °F 21.2 °F 80% 30.53 in 3.0 mi North 27.6 mph 39.1 mph N/A   Overcast
4:16 AM 26.6 °F 10.0 °F 19.4 °F 74% 30.53 in 3.0 mi NNW 31.1 mph 40.3 mph N/A   Overcast
4:36 AM 26.6 °F 9.6 °F 19.4 °F 74% 30.53 in 7.0 mi North 33.4 mph 40.3 mph N/A   Overcast
4:56 AM 26.6 °F 10.3 °F 19.4 °F 74% 30.54 in 2.5 mi North 29.9 mph - N/A   Overcast
5:16 AM 26.6 °F 9.3 °F 19.4 °F 74% 30.54 in 2.0 mi North 34.5 mph 40.3 mph N/A   Overcast
5:36 AM 26.6 °F 9.1 °F 17.6 °F 69% 30.55 in 4.0 mi North 35.7 mph 39.1 mph N/A   Overcast
5:56 AM 26.6 °F 10.0 °F 19.4 °F 74% 30.55 in 3.0 mi North 31.1 mph 36.8 mph N/A   Overcast
6:16 AM 26.6 °F 9.6 °F 21.2 °F 80% 30.56 in 1.8 mi North 33.4 mph 39.1 mph N/A   Overcast
6:36 AM 26.6 °F 10.0 °F 17.6 °F 69% 30.56 in 3.0 mi North 31.1 mph 39.1 mph N/A   Overcast
6:56 AM 26.6 °F 9.3 °F 17.6 °F 69% 30.57 in 6.0 mi North 34.5 mph - N/A   Overcast
7:16 AM 26.6 °F 10.3 °F 17.6 °F 69% 30.57 in 3.0 mi North 29.9 mph 38.0 mph N/A   Overcast
7:36 AM 26.6 °F 9.8 °F 19.4 °F 74% 30.58 in 3.0 mi North 32.2 mph 38.0 mph N/A   Overcast
8:16 AM 26.6 °F 10.3 °F 19.4 °F 74% 30.58 in 3.0 mi North 29.9 mph 35.7 mph N/A   Overcast
8:36 AM 24.8 °F 7.6 °F 17.6 °F 74% 30.59 in 3.0 mi North 31.1 mph 35.7 mph N/A   Overcast
8:56 AM 26.6 °F 9.8 °F 15.8 °F 64% 30.59 in 10.0 mi North 32.2 mph 36.8 mph N/A   Overcast
9:16 AM 26.6 °F 10.6 °F 17.6 °F 69% 30.59 in 8.0 mi North 28.8 mph - N/A   Overcast
9:36 AM 26.6 °F 11.1 °F 17.6 °F 69% 30.60 in 5.0 mi North 26.5 mph 33.4 mph N/A   Overcast
9:56 AM 26.6 °F 10.3 °F 17.6 °F 69% 30.61 in 7.0 mi North 29.9 mph 35.7 mph N/A   Overcast
10:16 AM 26.6 °F 10.6 °F 19.4 °F 74% 30.61 in 7.0 mi North 28.8 mph 32.2 mph N/A   Overcast
10:36 AM 26.6 °F 10.6 °F 17.6 °F 69% 30.62 in 5.0 mi North 28.8 mph 36.8 mph N/A   Overcast
10:56 AM 26.6 °F 10.6 °F 19.4 °F 74% 30.62 in 6.0 mi North 28.8 mph 35.7 mph N/A   Overcast
11:16 AM 24.8 °F 7.9 °F 21.2 °F 86% 30.63 in 1.2 mi North 29.9 mph - N/A   Overcast
11:36 AM 26.6 °F 9.8 °F 17.6 °F 69% 30.63 in 2.5 mi North 32.2 mph - N/A   Mostly Cloudy
11:56 AM 26.6 °F 11.4 °F 19.4 °F 74% 30.64 in 3.0 mi NNE 25.3 mph 33.4 mph N/A   Overcast
12:16 PM 26.6 °F 10.8 °F 17.6 °F 69% 30.64 in 1.0 mi North 27.6 mph 35.7 mph N/A   Overcast
12:36 PM 26.6 °F 10.6 °F 17.6 °F 69% 30.64 in 2.0 mi North 28.8 mph 33.4 mph N/A   Overcast
12:56 PM 26.6 °F 10.6 °F 19.4 °F 74% 30.64 in 2.0 mi North 28.8 mph 33.4 mph N/A   Overcast
1:16 PM 26.6 °F 10.8 °F 19.4 °F 74% 30.65 in 1.5 mi NNE 27.6 mph 32.2 mph N/A   Overcast
1:36 PM 26.6 °F 10.6 °F 19.4 °F 74% 30.65 in 1.5 mi North 28.8 mph 34.5 mph N/A   Overcast
1:56 PM 26.6 °F 10.6 °F 19.4 °F 74% 30.65 in 4.0 mi North 28.8 mph - N/A   Overcast
2:16 PM 26.6 °F 10.3 °F 17.6 °F 69% 30.66 in 5.0 mi North 29.9 mph 34.5 mph N/A   Overcast
2:36 PM 26.6 °F 10.0 °F 19.4 °F 74% 30.66 in 1.5 mi North 31.1 mph - N/A   Overcast
2:56 PM 26.6 °F 10.6 °F 17.6 °F 69% 30.66 in 4.0 mi North 28.8 mph 33.4 mph N/A   Overcast
3:16 PM 26.6 °F 10.6 °F 19.4 °F 74% 30.66 in 1.5 mi North 28.8 mph 34.5 mph N/A   Overcast
3:36 PM 26.6 °F 10.6 °F 19.4 °F 74% 30.66 in 1.5 mi North 28.8 mph 33.4 mph N/A   Overcast
3:56 PM 26.6 °F 10.6 °F 19.4 °F 74% 30.66 in 1.5 mi North 28.8 mph 32.2 mph N/A   Overcast
4:16 PM 26.6 °F 11.1 °F 17.6 °F 69% 30.66 in 5.0 mi North 26.5 mph 32.2 mph N/A   Overcast
4:36 PM 26.6 °F 10.0 °F 17.6 °F 69% 30.65 in 5.0 mi North 31.1 mph 34.5 mph N/A   Overcast
4:56 PM 26.6 °F 11.7 °F 19.4 °F 74% 30.66 in 5.0 mi North 24.2 mph 32.2 mph N/A   Overcast
5:16 PM 26.6 °F 11.1 °F 19.4 °F 74% 30.67 in 3.0 mi NNE 26.5 mph 32.2 mph N/A   Overcast
5:36 PM 26.6 °F 11.4 °F 15.8 °F 64% 30.67 in 9.0 mi North 25.3 mph - N/A   Overcast
5:56 PM 26.6 °F 11.1 °F 15.8 °F 64% 30.66 in 10.0 mi North 26.5 mph - N/A   Overcast
6:16 PM 26.6 °F 10.6 °F 15.8 °F 64% 30.66 in 10.0 mi North 28.8 mph 32.2 mph N/A   Overcast
6:36 PM 26.6 °F 12.4 °F 15.8 °F 64% 30.67 in 10.0 mi North 21.9 mph - N/A   Overcast
6:56 PM 26.6 °F 11.1 °F 15.8 °F 64% 30.67 in 10.0 mi North 26.5 mph 29.9 mph N/A   Overcast
7:16 PM 26.6 °F 11.7 °F 15.8 °F 64% 30.67 in 10.0 mi North 24.2 mph 28.8 mph N/A   Overcast
7:36 PM 26.6 °F 12.0 °F 17.6 °F 69% 30.67 in 9.0 mi NNE 23.0 mph 27.6 mph N/A   Overcast
7:56 PM 26.6 °F 11.4 °F 14.0 °F 59% 30.67 in 10.0 mi North 25.3 mph 28.8 mph N/A   Overcast
8:16 PM 26.6 °F 10.3 °F 15.8 °F 64% 30.68 in 10.0 mi North 29.9 mph 34.5 mph N/A   Overcast
8:36 PM 26.6 °F 11.7 °F 15.8 °F 64% 30.68 in 9.0 mi North 24.2 mph 29.9 mph N/A   Overcast
8:56 PM 26.6 °F 11.1 °F 15.8 °F 64% 30.68 in 10.0 mi North 26.5 mph - N/A   Overcast
9:16 PM 26.6 °F 11.4 °F 17.6 °F 69% 30.68 in 10.0 mi North 25.3 mph 29.9 mph N/A   Overcast
9:36 PM 26.6 °F 12.0 °F 14.0 °F 59% 30.69 in 10.0 mi NNE 23.0 mph 31.1 mph N/A   Overcast
9:56 PM 26.6 °F 12.0 °F 15.8 °F 64% 30.69 in 10.0 mi North 23.0 mph 28.8 mph N/A   Overcast
10:16 PM 26.6 °F 12.4 °F 15.8 °F 64% 30.69 in 10.0 mi NNE 21.9 mph - N/A   Overcast
10:36 PM 26.6 °F 12.0 °F 15.8 °F 64% 30.69 in 10.0 mi North 23.0 mph - N/A   Overcast
10:56 PM 26.6 °F 13.1 °F 15.8 °F 64% 30.69 in 10.0 mi North 19.6 mph 28.8 mph N/A   Overcast
11:16 PM 26.6 °F 13.1 °F 19.4 °F 74% 30.69 in 10.0 mi North 19.6 mph - N/A   Overcast
11:56 PM 26.6 °F 12.7 °F 15.8 °F 64% 30.69 in 10.0 mi NNE 20.7 mph 25.3 mph N/A   Overcast